createdAt,value
2019-05-20T00:04:54.179Z,4.63
2019-05-20T00:09:58.715Z,5.07
2019-05-20T00:15:02.935Z,4.93
2019-05-20T00:20:07.480Z,5.50
2019-05-20T00:25:11.877Z,6.83
2019-05-20T00:30:16.823Z,7.20
2019-05-20T00:35:21.182Z,6.67
2019-05-20T00:40:25.214Z,7.20
2019-05-20T00:45:29.516Z,7.57
2019-05-20T00:50:34.922Z,7.33
2019-05-20T00:55:39.989Z,6.90
2019-05-20T01:00:44.455Z,6.23
2019-05-20T01:05:48.533Z,6.57
2019-05-20T01:10:52.933Z,5.80
2019-05-20T01:15:57.564Z,6.70
2019-05-20T01:21:01.947Z,6.50
2019-05-20T01:26:06.028Z,6.90
2019-05-20T01:31:10.052Z,7.00
2019-05-20T01:36:14.323Z,7.30
2019-05-20T01:41:18.600Z,6.70
2019-05-20T01:46:22.628Z,7.80
2019-05-20T01:51:26.819Z,6.90
2019-05-20T01:56:31.390Z,8.17
2019-05-20T02:01:35.664Z,7.20
2019-05-20T02:06:39.669Z,8.50
2019-05-20T02:11:43.807Z,8.67
2019-05-20T02:16:47.779Z,9.10
2019-05-20T02:21:52.402Z,8.90
2019-05-20T02:26:56.512Z,8.30
2019-05-20T02:32:00.982Z,8.30
2019-05-20T02:37:05.577Z,9.03
2019-05-20T02:42:09.937Z,9.17
2019-05-20T02:47:14.278Z,8.57
2019-05-20T02:52:18.264Z,8.67
2019-05-20T02:57:22.791Z,8.90
2019-05-20T03:02:27.065Z,8.73
2019-05-20T03:07:31.821Z,9.00
2019-05-20T03:12:36.368Z,8.13
2019-05-20T03:17:40.589Z,8.27
2019-05-20T03:22:44.835Z,8.97
2019-05-20T03:27:49.123Z,10.40
2019-05-20T03:32:54.077Z,9.27
2019-05-20T03:37:58.344Z,8.93
2019-05-20T03:43:02.578Z,9.83
2019-05-20T03:48:06.933Z,10.10
2019-05-20T03:53:11.219Z,9.00
2019-05-20T03:58:15.461Z,9.80
2019-05-20T04:03:19.376Z,9.80
2019-05-20T04:08:23.596Z,9.80
2019-05-20T04:13:27.813Z,10.33
2019-05-20T04:18:32.093Z,10.50
2019-05-20T04:23:36.254Z,10.77
2019-05-20T04:28:40.752Z,10.93
2019-05-20T04:33:45.932Z,10.97
2019-05-20T04:38:50.697Z,12.23
2019-05-20T04:43:54.885Z,12.73
2019-05-20T04:48:59.578Z,13.13
2019-05-20T04:54:04.279Z,12.17
2019-05-20T04:59:08.203Z,12.70
2019-05-20T05:04:12.364Z,12.80
2019-05-20T05:09:16.695Z,15.27
2019-05-20T05:14:20.719Z,15.47
2019-05-20T05:19:24.715Z,16.27
2019-05-20T05:24:29.010Z,15.80
2019-05-20T05:29:33.301Z,18.40
2019-05-20T05:34:38.200Z,18.40
2019-05-20T05:39:42.852Z,21.47
2019-05-20T05:44:46.724Z,23.07
2019-05-20T05:49:51.022Z,21.43
2019-05-20T05:54:55.331Z,24.97
2019-05-20T06:00:00.001Z,24.33
2019-05-20T06:05:04.104Z,23.67
2019-05-20T06:10:08.772Z,27.77
2019-05-20T06:15:15.072Z,29.40
2019-05-20T06:20:19.371Z,29.40
2019-05-20T06:25:23.735Z,32.03
2019-05-20T06:30:39.611Z,29.13
2019-05-20T06:35:43.955Z,31.90
2019-05-20T06:40:48.599Z,30.97
2019-05-20T06:45:52.559Z,31.83
2019-05-20T06:50:56.755Z,27.67
2019-05-20T06:56:01.011Z,29.57
2019-05-20T07:01:04.991Z,27.60
2019-05-20T07:06:09.252Z,30.97
2019-05-20T07:11:13.895Z,26.57
2019-05-20T07:16:18.132Z,27.07
2019-05-20T07:21:22.016Z,27.30
2019-05-20T07:26:26.034Z,29.93
2019-05-20T07:31:30.407Z,29.23
2019-05-20T07:36:35.061Z,29.30
2019-05-20T07:41:41.388Z,30.43
2019-05-20T07:46:44.748Z,28.03
2019-05-20T07:51:50.483Z,26.83
2019-05-20T07:56:57.518Z,27.37
2019-05-20T08:02:02.052Z,27.10
2019-05-20T08:07:26.082Z,26.17
2019-05-20T08:12:12.477Z,27.30
2019-05-20T08:17:16.720Z,25.67
2019-05-20T08:22:20.663Z,25.03
2019-05-20T08:27:24.975Z,25.43
2019-05-20T08:32:29.287Z,25.70
2019-05-20T08:37:44.759Z,23.93
2019-05-20T08:42:39.610Z,25.07
2019-05-20T08:47:43.863Z,26.40
2019-05-20T08:52:47.926Z,26.67
2019-05-20T08:57:52.005Z,26.80
2019-05-20T09:02:55.995Z,25.80
2019-05-20T09:08:03.366Z,24.23
2019-05-20T09:13:05.948Z,27.87
2019-05-20T09:18:10.240Z,25.80
2019-05-20T09:23:14.248Z,25.03
2019-05-20T09:28:18.225Z,26.57
2019-05-20T09:33:23.017Z,25.13
2019-05-20T09:38:27.323Z,29.93
2019-05-20T09:43:31.214Z,27.00
2019-05-20T09:48:35.481Z,27.23
2019-05-20T09:53:39.714Z,27.73
2019-05-20T09:58:43.674Z,28.53
2019-05-20T10:03:47.893Z,29.27
2019-05-20T10:08:52.109Z,31.60
2019-05-20T10:13:55.980Z,29.90
2019-05-20T10:18:59.869Z,31.73
2019-05-20T10:24:04.009Z,30.73
2019-05-20T10:29:08.321Z,33.20
2019-05-20T10:34:12.828Z,31.77
2019-05-20T10:39:16.707Z,32.40
2019-05-20T10:44:20.686Z,31.50
2019-05-20T10:49:24.567Z,32.90
2019-05-20T10:54:28.776Z,30.07
2019-05-20T10:59:33.429Z,30.07
2019-05-20T11:04:37.719Z,31.23
2019-05-20T11:09:41.983Z,32.27
2019-05-20T11:14:45.944Z,33.73
2019-05-20T11:19:50.171Z,31.40
2019-05-20T11:24:54.683Z,31.83
2019-05-20T11:29:59.049Z,31.90
2019-05-20T11:35:03.684Z,32.50
2019-05-20T11:40:09.062Z,35.20
2019-05-20T11:45:17.018Z,34.33
2019-05-20T11:50:21.497Z,31.37
2019-05-20T11:55:25.536Z,32.77
2019-05-20T12:00:29.878Z,34.70
2019-05-20T12:05:34.305Z,38.37
2019-05-20T12:10:38.540Z,34.93
2019-05-20T12:15:43.065Z,35.60
2019-05-20T12:20:46.943Z,36.23
2019-05-20T12:25:51.948Z,38.63
2019-05-20T12:30:55.813Z,34.73
2019-05-20T12:35:59.983Z,35.50
2019-05-20T12:41:04.011Z,32.83
2019-05-20T12:46:08.387Z,33.90
2019-05-20T12:51:14.577Z,33.80
2019-05-20T12:56:19.686Z,34.57
2019-05-20T13:01:24.675Z,35.90
2019-05-20T13:06:28.686Z,36.80
2019-05-20T13:11:32.584Z,35.10
2019-05-20T13:16:37.144Z,36.70
2019-05-20T13:21:41.382Z,36.37
2019-05-20T13:26:45.758Z,36.43
2019-05-20T13:31:49.944Z,37.63
2019-05-20T13:36:53.829Z,38.90
2019-05-20T13:41:58.003Z,35.53
2019-05-20T13:47:02.281Z,37.50
2019-05-20T13:52:07.135Z,36.53
2019-05-20T13:57:13.190Z,35.60
2019-05-20T14:02:17.246Z,27.90
2019-05-20T14:07:21.531Z,25.20
2019-05-20T14:12:25.501Z,31.40
2019-05-20T14:17:29.681Z,28.57
2019-05-20T14:22:34.231Z,27.60
2019-05-20T14:27:38.484Z,35.93
2019-05-20T14:32:42.692Z,38.17
2019-05-20T14:37:46.583Z,32.30
2019-05-20T14:42:50.871Z,29.00
2019-05-20T14:47:55.532Z,37.73
2019-05-20T14:53:00.101Z,35.10
2019-05-20T14:58:04.372Z,31.43
2019-05-20T15:03:08.915Z,31.60
2019-05-20T15:08:16.348Z,32.50
2019-05-20T15:13:20.881Z,37.27
2019-05-20T15:18:25.520Z,40.13
2019-05-20T15:23:29.467Z,41.97
2019-05-20T15:28:33.404Z,37.57
2019-05-20T15:33:38.308Z,34.73
2019-05-20T15:38:42.543Z,38.33
2019-05-20T15:43:46.412Z,35.97
2019-05-20T15:48:50.382Z,37.23
2019-05-20T15:53:54.631Z,35.87
2019-05-20T15:58:58.980Z,34.83
2019-05-20T16:04:03.242Z,38.37
2019-05-20T16:09:07.667Z,34.67
2019-05-20T16:14:12.587Z,36.97
2019-05-20T16:19:16.851Z,34.70
2019-05-20T16:24:21.315Z,34.90
2019-05-20T16:29:25.905Z,36.20
2019-05-20T16:34:29.874Z,35.20
2019-05-20T16:39:33.907Z,37.37
2019-05-20T16:44:38.196Z,34.97
2019-05-20T16:49:42.488Z,35.90
2019-05-20T16:54:46.740Z,34.20
2019-05-20T16:59:51.005Z,35.20
2019-05-20T17:04:58.242Z,34.57
2019-05-20T17:10:06.472Z,36.07
2019-05-20T17:15:14.657Z,34.13
2019-05-20T17:20:21.238Z,33.33
2019-05-20T17:25:25.857Z,32.97
2019-05-20T17:30:45.542Z,24.20
2019-05-20T17:35:48.285Z,21.50
2019-05-20T17:40:52.635Z,24.10
2019-05-20T17:45:56.813Z,22.40
2019-05-20T17:51:08.458Z,23.30
2019-05-20T17:56:13.229Z,27.43
2019-05-20T18:01:17.855Z,24.87
2019-05-20T18:06:21.805Z,28.43
2019-05-20T18:11:26.011Z,30.70
2019-05-20T18:16:32.503Z,31.20
2019-05-20T18:21:37.136Z,32.10
2019-05-20T18:26:41.196Z,33.30
2019-05-20T18:31:45.399Z,37.03
2019-05-20T18:36:49.740Z,35.80
2019-05-20T18:42:03.741Z,35.37
2019-05-20T18:47:08.752Z,37.20
2019-05-20T18:52:16.586Z,37.47
2019-05-20T18:57:21.163Z,38.60
2019-05-20T19:02:30.772Z,36.37
2019-05-20T19:07:35.824Z,38.00
2019-05-20T19:12:40.471Z,39.30
2019-05-20T19:17:44.824Z,39.10
2019-05-20T19:22:51.351Z,40.67
2019-05-20T19:27:55.324Z,45.17
2019-05-20T19:32:59.964Z,50.47
2019-05-20T19:38:04.197Z,42.67
2019-05-20T19:43:14.391Z,43.17
2019-05-20T19:48:19.033Z,48.00
2019-05-20T19:53:23.762Z,45.10
2019-05-20T19:58:27.652Z,47.50
2019-05-20T20:03:31.632Z,45.20
2019-05-20T20:08:36.049Z,41.00
2019-05-20T20:13:40.388Z,40.67
2019-05-20T20:18:44.567Z,49.67
2019-05-20T20:23:49.463Z,46.33
2019-05-20T20:28:53.651Z,46.30
2019-05-20T20:33:57.859Z,42.60
2019-05-20T20:39:02.507Z,47.80
2019-05-20T20:44:06.543Z,38.10
2019-05-20T20:49:14.684Z,41.93
2019-05-20T20:54:17.632Z,41.40
2019-05-20T20:59:22.171Z,37.53
2019-05-20T21:04:26.815Z,40.03
2019-05-20T21:09:30.734Z,42.40
2019-05-20T21:14:35.279Z,38.83
2019-05-20T21:19:39.531Z,37.83
2019-05-20T21:24:46.207Z,39.13
2019-05-20T21:29:50.387Z,36.00
2019-05-20T21:34:54.875Z,35.63
2019-05-20T21:39:59.315Z,34.27
2019-05-20T21:45:03.339Z,38.30
2019-05-20T21:50:08.808Z,34.23
2019-05-20T21:55:12.929Z,34.33
2019-05-20T22:00:22.819Z,37.87
2019-05-20T22:05:26.757Z,32.70
2019-05-20T22:10:30.904Z,36.47
2019-05-20T22:15:34.994Z,32.73
2019-05-20T22:20:39.227Z,34.37
2019-05-20T22:25:43.870Z,32.87
2019-05-20T22:30:47.743Z,30.53
2019-05-20T22:35:51.929Z,32.80
2019-05-20T22:40:56.059Z,36.17
2019-05-20T22:46:00.497Z,31.57
2019-05-20T22:51:07.061Z,32.30
2019-05-20T22:56:11.277Z,31.83
2019-05-20T23:01:15.223Z,31.73
2019-05-20T23:06:19.423Z,28.87
2019-05-20T23:11:24.029Z,29.30
2019-05-20T23:16:28.390Z,29.97
2019-05-20T23:21:33.002Z,28.10
2019-05-20T23:26:37.539Z,29.60
2019-05-20T23:31:41.839Z,29.93
2019-05-20T23:36:46.002Z,29.50
2019-05-20T23:41:50.244Z,27.60
2019-05-20T23:46:54.422Z,26.70
2019-05-20T23:51:58.671Z,26.93
2019-05-20T23:57:02.895Z,26.77
